Terminal Aerodrome Forecast
Issued by NWS Wilmington, OH

Current Version | Previous Version | Graphics & Text | Print | Product List | Glossary On
Versions: 1 2 3 4 5 6 7 8 9 10 11 12 13 14 15 16 17 18 19 20 21 22 23 24 25
401
FTUS41 KILN 020252 AAB
TAFDAY
TAF AMD
KDAY 020252Z 0203/0224 03006KT P6SM BKN040
     FM020400 06006KT P6SM VCTS BKN040CB
      TEMPO 0204/0207 4SM TSRA BR OVC025CB
     FM020800 34006KT P6SM OVC025
     FM021200 34006KT P6SM OVC015
     FM021500 34006KT P6SM OVC015=

USA.gov is the U.S. government's official web portal to all federal, state and local government web resources and services.